This is the latest recevied weather packets stored in our database for station/object NG7N. If no packets are shown the sender has not sent any weather packets the latest 10 day(s).
| Time | Temp. | Humidity | Pressure | Rain* | Wind** | Luminosity | Snow |
|---|---|---|---|---|---|---|---|
| 1777816765 | 15.56° C | 66% | 1014 hPa | 0 mm | - | - | - |
| 1777815564 | 15.56° C | 67% | 1014 hPa | 0 mm | - | - | - |
| 1777814965 | 15.56° C | 67% | 1014 hPa | 0 mm | - | - | - |
| 1777813765 | 14.44° C | 70% | 1013.9 hPa | 0 mm | - | - | - |
| 1777813164 | 13.89° C | 74% | 1014 hPa | 0 mm | - | - | - |
| 1777811964 | 13.89° C | 74% | 1013.9 hPa | 0 mm | - | - | - |
| 1777810165 | 13.89° C | 74% | 1014 hPa | 0 mm | - | - | - |
| 1777809566 | 13.89° C | 74% | 1014.1 hPa | 0 mm | - | - | - |
| 1777808366 | 13.33° C | 75% | 1014.3 hPa | 0 mm | - | - | - |
| 1777807764 | 13.33° C | 75% | 1014.3 hPa | 0 mm | - | - | - |
| 1777806565 | 13.33° C | 75% | 1014.3 hPa | 0 mm | - | - | - |
| 1777805965 | 13.33° C | 75% | 1014.3 hPa | 0 mm | - | - | - |
| 1777805364 | 13.33° C | 75% | 1014.3 hPa | 0 mm | - | - | - |
| 1777804765 | 13.89° C | 72% | 1014.2 hPa | 0 mm | - | - | - |
| 1777804165 | 13.89° C | 73% | 1014.1 hPa | 0 mm | - | - | - |
| 1777803564 | 13.89° C | 72% | 1014.1 hPa | 0 mm | - | - | - |
| 1777802965 | 14.44° C | 70% | 1014.3 hPa | 0 mm | - | - | - |
| 1777802364 | 15° C | 66% | 1014.4 hPa | 0 mm | - | - | - |
| 1777801164 | 14.44° C | 65% | 1014.5 hPa | 0 mm | - | - | - |
| 1777800564 | 15° C | 64% | 1014.5 hPa | 0 mm | - | - | - |
| 1777799964 | 15° C | 65% | 1014.5 hPa | 0 mm | - | - | - |
| 1777799665 | 15° C | 65% | 1014.5 hPa | 0 mm | - | - | - |
| 1777799365 | 15° C | 64% | 1014.5 hPa | 0 mm | - | - | - |
| 1777798764 | 15.56° C | 63% | 1014.5 hPa | 0 mm | - | - | - |
| 1777798164 | 16.11° C | 61% | 1014.5 hPa | 0 mm | - | - | - |
* Rain latest hour (hover to see other rain measurements)
** Current wind speed in m/s (hover to see current wind gust speed)